Time;durP1;ratioP1;P1;durP2;ratioP2;P2;SDS_P1;SDS_P2;PMS_P1;PMS_P2;Temp;Humidity;BMP_temperature;BMP_pressure;BME280_temperature;BME280_humidity;BME280_pressure;Samples;Min_cycle;Max_cycle;Signal;HPM_P1;HPM_P2
2022/06/27 00:00:31;;;;;;;10.38;6.18;;;17.00;99.90;;;;;;5059514;28;20127;-80
2022/06/27 00:02:56;;;;;;;8.48;6.20;;;17.00;99.90;;;;;;5070304;28;20043;-80
2022/06/27 00:05:22;;;;;;;11.85;5.65;;;17.10;99.90;;;;;;5053358;28;20062;-79
2022/06/27 00:07:48;;;;;;;8.23;7.28;;;17.10;99.90;;;;;;5077403;28;20080;-79
2022/06/27 00:10:14;;;;;;;7.03;5.93;;;17.10;99.90;;;;;;5067006;28;20028;-80
2022/06/27 00:12:40;;;;;;;11.05;7.78;;;17.10;99.90;;;;;;5046258;28;20277;-79
2022/06/27 00:15:08;;;;;;;8.90;6.50;;;17.10;99.90;;;;;;5068561;28;20047;-79
2022/06/27 00:17:34;;;;;;;10.35;6.88;;;17.10;99.90;;;;;;5039236;28;20188;-79
2022/06/27 00:20:00;;;;;;;7.80;6.70;;;17.10;99.90;;;;;;5065548;28;20564;-79
2022/06/27 00:22:26;;;;;;;9.20;6.55;;;17.10;99.90;;;;;;5071364;28;20048;-79
2022/06/27 00:24:52;;;;;;;7.82;7.05;;;17.10;99.90;;;;;;5053112;28;20049;-79
2022/06/27 00:27:19;;;;;;;7.93;7.03;;;17.00;99.90;;;;;;5054595;28;20117;-79
2022/06/27 00:29:44;;;;;;;9.80;7.43;;;17.10;99.90;;;;;;5058806;28;20484;-79
2022/06/27 00:32:10;;;;;;;8.95;7.88;;;17.00;99.90;;;;;;5045225;28;20183;-80
2022/06/27 00:34:37;;;;;;;12.75;8.63;;;17.00;99.90;;;;;;5065131;28;20037;-78
2022/06/27 00:37:03;;;;;;;10.00;8.70;;;17.10;99.90;;;;;;5067691;28;20068;-78
2022/06/27 00:39:28;;;;;;;7.47;6.38;;;17.00;99.90;;;;;;5054817;28;20426;-78
2022/06/27 00:41:54;;;;;;;13.15;9.35;;;16.90;99.90;;;;;;5074944;28;20043;-79
2022/06/27 00:44:37;;;;;;;12.15;7.28;;;16.80;99.90;;;;;;5063835;28;20419;-78
2022/06/27 00:47:04;;;;;;;10.65;7.20;;;16.90;99.90;;;;;;5058416;28;20087;-79
2022/06/27 00:49:30;;;;;;;10.93;8.02;;;16.90;99.90;;;;;;5065118;28;20100;-79
2022/06/27 00:51:56;;;;;;;7.57;6.80;;;16.90;99.90;;;;;;5050311;28;20471;-80
2022/06/27 00:54:23;;;;;;;10.77;7.30;;;16.70;99.90;;;;;;5065918;28;20105;-80
2022/06/27 00:56:51;;;;;;;11.77;7.47;;;16.70;99.90;;;;;;5059522;28;20096;-80
2022/06/27 00:59:17;;;;;;;10.02;7.55;;;16.70;99.90;;;;;;5068610;28;20078;-79
2022/06/27 01:01:43;;;;;;;8.63;7.60;;;16.90;99.90;;;;;;5035002;28;20040;-80
2022/06/27 01:04:08;;;;;;;8.95;7.03;;;16.80;99.90;;;;;;5045690;28;20040;-80
2022/06/27 01:06:34;;;;;;;11.52;8.30;;;16.80;99.90;;;;;;5066143;28;20045;-80
2022/06/27 01:09:00;;;;;;;12.40;7.50;;;16.80;99.90;;;;;;5059150;28;20048;-79
2022/06/27 01:11:26;;;;;;;11.48;8.07;;;16.90;99.90;;;;;;5048461;28;20752;-80
2022/06/27 01:13:51;;;;;;;11.52;7.65;;;17.00;99.90;;;;;;5050817;28;20048;-80
2022/06/27 01:16:18;;;;;;;10.20;8.15;;;16.90;99.90;;;;;;5072812;28;20071;-79
2022/06/27 01:18:44;;;;;;;9.32;8.50;;;16.90;99.90;;;;;;5056019;28;20117;-78
2022/06/27 01:21:19;;;;;;;12.27;8.15;;;16.80;99.90;;;;;;5049166;28;20044;-80
2022/06/27 01:23:45;;;;;;;11.38;8.32;;;16.80;99.90;;;;;;5050688;28;20121;-79
2022/06/27 01:26:11;;;;;;;10.32;7.60;;;16.70;99.90;;;;;;5066507;28;20068;-81
2022/06/27 01:28:36;;;;;;;11.38;7.20;;;16.70;99.90;;;;;;5066553;28;20044;-80
2022/06/27 01:31:02;;;;;;;11.73;7.32;;;16.70;99.90;;;;;;5037321;28;20036;-79
2022/06/27 01:33:28;;;;;;;8.25;7.35;;;16.70;99.90;;;;;;5072140;28;20043;-79
2022/06/27 01:36:41;;;;;;;12.43;7.28;;;16.70;99.90;;;;;;5065730;28;20040;-79
2022/06/27 01:38:39;;;;;;;11.48;8.30;;;16.70;99.90;;;;;;5064988;28;20033;-82
2022/06/27 01:41:06;;;;;;;12.52;8.77;;;16.70;99.90;;;;;;5032507;28;20490;-80
2022/06/27 01:43:32;;;;;;;14.23;7.28;;;16.70;99.90;;;;;;5064008;28;20040;-80
2022/06/27 01:45:57;;;;;;;8.57;7.10;;;16.70;99.90;;;;;;5059713;28;20048;-79
2022/06/27 01:48:24;;;;;;;10.75;8.20;;;16.70;99.90;;;;;;5055847;28;20084;-80
2022/06/27 01:50:54;;;;;;;12.25;8.38;;;16.60;99.90;;;;;;5043953;28;20041;-79
2022/06/27 01:53:20;;;;;;;11.33;7.23;;;16.70;99.90;;;;;;5047196;28;20040;-78
2022/06/27 01:55:46;;;;;;;8.77;7.68;;;16.90;99.90;;;;;;5046628;28;20064;-79
2022/06/27 01:58:12;;;;;;;9.63;8.73;;;16.70;99.90;;;;;;5042083;28;20037;-78
2022/06/27 02:00:38;;;;;;;9.90;7.57;;;16.80;99.90;;;;;;5044335;28;20033;-80
2022/06/27 02:03:03;;;;;;;9.63;8.40;;;16.80;99.90;;;;;;5053159;28;20045;-80
2022/06/27 02:05:29;;;;;;;8.88;7.70;;;16.90;99.90;;;;;;5042290;28;20464;-79
2022/06/27 02:07:58;;;;;;;11.13;8.35;;;16.70;99.90;;;;;;5048662;28;20404;-79
2022/06/27 02:10:24;;;;;;;14.80;8.85;;;16.60;99.90;;;;;;5038095;28;20040;-79
2022/06/27 02:12:50;;;;;;;9.75;8.23;;;16.60;99.90;;;;;;5052042;28;20052;-78
2022/06/27 02:15:16;;;;;;;9.30;8.00;;;16.50;99.90;;;;;;5057783;28;20079;-79
2022/06/27 02:17:42;;;;;;;13.93;7.88;;;16.60;99.90;;;;;;5046684;28;20432;-80
2022/06/27 02:20:08;;;;;;;8.43;7.70;;;16.60;99.90;;;;;;5043619;28;20075;-80
2022/06/27 02:22:34;;;;;;;12.85;8.00;;;16.40;99.90;;;;;;5049706;28;20055;-79
2022/06/27 02:25:00;;;;;;;11.10;7.18;;;16.50;99.90;;;;;;5044719;28;20111;-79
2022/06/27 02:27:29;;;;;;;9.85;8.48;;;16.50;99.90;;;;;;5053534;28;20443;-79
2022/06/27 02:29:54;;;;;;;9.80;8.38;;;16.50;99.90;;;;;;5052686;28;20050;-80
2022/06/27 02:32:20;;;;;;;10.18;8.27;;;16.70;99.90;;;;;;5043988;28;20372;-79
2022/06/27 02:34:49;;;;;;;9.07;8.18;;;16.70;99.90;;;;;;5047484;28;20041;-79
2022/06/27 02:37:15;;;;;;;10.57;8.07;;;16.60;99.90;;;;;;5045538;28;20055;-80
2022/06/27 02:39:44;;;;;;;13.43;8.98;;;16.80;99.90;;;;;;5052761;28;20049;-80
2022/06/27 02:42:10;;;;;;;12.27;8.23;;;16.60;99.90;;;;;;5050266;28;20102;-79
2022/06/27 02:44:38;;;;;;;13.88;8.57;;;16.60;99.90;;;;;;5055998;28;20382;-80
2022/06/27 02:47:04;;;;;;;10.43;8.35;;;16.70;99.90;;;;;;5047623;28;20499;-81
2022/06/27 02:49:30;;;;;;;12.00;8.18;;;16.70;99.90;;;;;;5055212;28;20056;-80
2022/06/27 02:52:06;;;;;;;11.48;8.48;;;16.70;99.90;;;;;;5057624;28;20120;-80
2022/06/27 02:54:41;;;;;;;9.07;8.18;;;16.70;99.90;;;;;;5049804;28;20043;-79
2022/06/27 02:57:25;;;;;;;11.90;8.10;;;16.70;99.90;;;;;;5065130;28;20040;-79
2022/06/27 02:59:54;;;;;;;13.88;8.25;;;16.70;99.90;;;;;;5058091;28;20048;-79
2022/06/27 03:02:21;;;;;;;13.32;9.52;;;16.70;99.90;;;;;;5050798;28;20057;-79
2022/06/27 03:04:47;;;;;;;9.88;8.98;;;16.70;99.90;;;;;;5050655;28;20120;-80
2022/06/27 03:07:12;;;;;;;10.70;9.60;;;16.50;99.90;;;;;;5051068;28;20454;-80
2022/06/27 03:09:38;;;;;;;9.70;8.80;;;16.50;99.90;;;;;;5064296;28;20721;-80
2022/06/27 03:12:04;;;;;;;12.60;9.70;;;16.50;99.90;;;;;;5051024;28;20391;-80
2022/06/27 03:14:30;;;;;;;10.07;9.18;;;16.30;99.90;;;;;;5052778;28;20040;-79
2022/06/27 03:16:55;;;;;;;9.85;8.93;;;16.40;99.90;;;;;;5047546;28;20072;-79
2022/06/27 03:19:21;;;;;;;14.68;10.27;;;16.40;99.90;;;;;;5050390;28;20047;-80
2022/06/27 03:21:46;;;;;;;13.95;9.73;;;16.30;99.90;;;;;;5050336;28;20041;-79
2022/06/27 03:24:12;;;;;;;10.07;9.07;;;16.40;99.90;;;;;;5066110;28;20051;-79
2022/06/27 03:26:38;;;;;;;18.23;12.23;;;16.30;99.90;;;;;;5071980;28;20052;-79
2022/06/27 03:29:03;;;;;;;10.98;9.55;;;16.30;99.90;;;;;;5051339;28;20056;-78
2022/06/27 03:31:30;;;;;;;13.52;11.65;;;16.30;99.90;;;;;;5070308;28;20097;-79
2022/06/27 03:33:55;;;;;;;10.93;9.82;;;16.40;99.90;;;;;;5053523;28;20049;-79
2022/06/27 03:36:21;;;;;;;11.85;10.75;;;16.30;99.90;;;;;;5047789;28;20056;-81
2022/06/27 03:38:47;;;;;;;12.82;10.93;;;16.40;99.90;;;;;;5062921;28;20044;-79
2022/06/27 03:41:13;;;;;;;11.90;10.70;;;16.50;99.90;;;;;;5058195;28;20037;-80
2022/06/27 03:43:38;;;;;;;12.73;11.43;;;16.30;99.90;;;;;;5065374;28;20052;-80
2022/06/27 03:46:04;;;;;;;11.63;10.52;;;16.50;99.90;;;;;;5061772;28;20056;-80
2022/06/27 03:51:14;;;;;;;11.55;10.40;;;16.30;99.90;;;;;;5057821;28;20099;-80
2022/06/27 03:53:39;;;;;;;17.45;10.48;;;16.40;99.90;;;;;;5062854;28;20133;-80
2022/06/27 03:56:06;;;;;;;11.93;10.82;;;16.30;99.90;;;;;;5069343;28;20641;-80
2022/06/27 03:58:32;;;;;;;13.05;10.52;;;16.40;99.90;;;;;;5065177;28;20098;-80
2022/06/27 04:00:58;;;;;;;13.90;12.20;;;16.40;99.90;;;;;;5066361;28;20047;-81
2022/06/27 04:03:23;;;;;;;14.68;11.57;;;16.40;99.90;;;;;;5059360;28;20040;-79
2022/06/27 04:05:49;;;;;;;13.80;11.43;;;16.30;99.90;;;;;;5069586;28;20040;-80
2022/06/27 04:08:15;;;;;;;11.73;10.73;;;16.20;99.90;;;;;;5073994;28;20132;-78
2022/06/27 04:10:40;;;;;;;13.10;11.27;;;16.40;99.90;;;;;;5071307;28;20032;-80
2022/06/27 04:13:06;;;;;;;13.88;12.27;;;16.30;99.90;;;;;;5077735;28;20093;-79
2022/06/27 04:15:31;;;;;;;12.73;11.43;;;16.40;99.90;;;;;;5077736;28;20090;-79
2022/06/27 04:17:57;;;;;;;13.00;11.70;;;16.20;99.90;;;;;;5065216;28;20082;-80
2022/06/27 04:20:24;;;;;;;15.32;11.07;;;16.30;99.90;;;;;;5054905;28;20094;-80
2022/06/27 04:22:51;;;;;;;18.40;12.23;;;16.30;99.90;;;;;;5060483;28;20405;-80
2022/06/27 04:25:16;;;;;;;12.77;11.60;;;16.30;99.90;;;;;;5052280;28;20098;-80
2022/06/27 04:27:42;;;;;;;13.00;11.73;;;16.30;99.90;;;;;;5066609;28;20044;-80
2022/06/27 04:30:15;;;;;;;12.68;11.30;;;16.50;99.90;;;;;;5033985;28;20611;-79
2022/06/27 04:32:42;;;;;;;15.50;13.60;;;16.40;99.90;;;;;;5049157;28;21252;-80
2022/06/27 04:35:08;;;;;;;12.05;10.77;;;16.50;99.90;;;;;;5057655;28;20083;-81
2022/06/27 04:37:33;;;;;;;14.25;12.85;;;16.50;99.90;;;;;;5076903;28;20032;-80
2022/06/27 04:39:59;;;;;;;14.63;13.23;;;16.40;99.90;;;;;;5052297;28;20032;-80
2022/06/27 04:42:25;;;;;;;15.63;13.07;;;16.50;99.90;;;;;;5075001;28;20036;-80
2022/06/27 04:44:51;;;;;;;14.18;12.80;;;16.50;99.90;;;;;;5074011;28;20513;-80
2022/06/27 04:47:17;;;;;;;16.00;12.98;;;16.60;99.90;;;;;;5073041;28;20131;-80
2022/06/27 04:49:42;;;;;;;15.07;13.55;;;16.60;99.90;;;;;;5083301;28;20041;-81
2022/06/27 04:52:12;;;;;;;21.25;13.02;;;16.60;99.90;;;;;;5028971;28;20364;-79
2022/06/27 04:54:38;;;;;;;14.73;12.98;;;16.50;99.90;;;;;;5077470;28;20525;-80
2022/06/27 04:57:05;;;;;;;15.18;13.73;;;16.60;99.90;;;;;;5059468;28;20074;-80
2022/06/27 04:59:31;;;;;;;15.55;14.05;;;16.60;99.90;;;;;;5063350;28;20067;-80
2022/06/27 05:01:57;;;;;;;18.30;15.38;;;16.70;99.90;;;;;;5046002;28;20053;-79
2022/06/27 05:04:23;;;;;;;17.35;14.27;;;16.80;99.90;;;;;;5064792;28;20105;-80
2022/06/27 05:06:50;;;;;;;17.05;15.45;;;16.70;99.90;;;;;;5066968;28;20554;-80
2022/06/27 05:09:16;;;;;;;16.85;15.15;;;16.90;99.90;;;;;;5086140;28;20074;-80
2022/06/27 05:11:45;;;;;;;18.02;15.32;;;17.10;99.90;;;;;;5060712;28;20111;-79
2022/06/27 05:14:11;;;;;;;17.90;16.10;;;16.90;99.90;;;;;;5044265;28;20052;-80
2022/06/27 05:16:38;;;;;;;19.90;17.92;;;17.10;99.90;;;;;;5047039;28;20197;-80
2022/06/27 05:19:04;;;;;;;18.58;16.25;;;17.20;99.90;;;;;;5081875;28;20063;-80
2022/06/27 05:21:29;;;;;;;18.42;15.02;;;16.90;99.90;;;;;;5050012;28;20029;-79
2022/06/27 05:23:55;;;;;;;19.20;16.73;;;17.10;99.90;;;;;;5066473;28;20129;-80
2022/06/27 05:26:21;;;;;;;17.58;15.82;;;17.00;99.90;;;;;;5048854;28;20044;-80
2022/06/27 05:28:47;;;;;;;18.85;16.10;;;17.10;99.90;;;;;;5065285;28;20422;-80
2022/06/27 05:31:13;;;;;;;18.58;16.75;;;17.20;99.90;;;;;;5048298;28;20039;-79
2022/06/27 05:33:39;;;;;;;17.75;15.35;;;17.30;99.90;;;;;;5037731;28;20304;-79
2022/06/27 05:36:06;;;;;;;19.00;17.10;;;17.20;99.90;;;;;;5050219;28;20047;-79
2022/06/27 05:38:32;;;;;;;24.60;18.45;;;17.30;99.90;;;;;;5044482;28;20135;-79
2022/06/27 05:40:59;;;;;;;23.23;20.27;;;17.30;99.90;;;;;;5049126;28;20131;-79
2022/06/27 05:43:25;;;;;;;23.08;18.80;;;17.40;99.90;;;;;;5060334;28;20040;-79
2022/06/27 05:45:51;;;;;;;24.88;20.52;;;17.20;99.90;;;;;;5066920;28;20131;-78
2022/06/27 05:48:19;;;;;;;22.33;19.33;;;17.30;99.90;;;;;;5075533;28;20047;-78
2022/06/27 05:50:44;;;;;;;21.13;18.85;;;17.30;99.90;;;;;;5065990;28;20060;-78
2022/06/27 05:53:10;;;;;;;21.55;19.33;;;17.20;99.90;;;;;;5042731;28;20040;-78
2022/06/27 05:55:38;;;;;;;21.38;18.48;;;17.20;99.90;;;;;;5063997;28;20109;-79
2022/06/27 05:58:04;;;;;;;22.50;19.40;;;17.30;99.90;;;;;;5044836;28;20044;-79
2022/06/27 06:00:30;;;;;;;22.60;20.40;;;17.40;99.90;;;;;;5065145;28;20483;-80
2022/06/27 06:02:57;;;;;;;20.48;18.30;;;17.60;99.90;;;;;;5068722;28;20083;-79
2022/06/27 06:05:24;;;;;;;21.48;19.05;;;17.40;99.90;;;;;;5062065;28;20047;-79
2022/06/27 06:07:50;;;;;;;18.95;17.08;;;17.50;99.90;;;;;;5069367;28;20462;-78
2022/06/27 06:10:16;;;;;;;20.02;18.02;;;17.30;99.90;;;;;;5028433;28;20077;-80
2022/06/27 06:12:42;;;;;;;19.77;17.77;;;17.40;99.90;;;;;;5062393;28;20068;-79
2022/06/27 06:15:08;;;;;;;20.27;18.08;;;17.40;99.90;;;;;;5064255;28;20509;-78
2022/06/27 06:17:36;;;;;;;19.30;17.50;;;17.40;99.90;;;;;;5066991;28;20079;-78
2022/06/27 06:20:05;;;;;;;18.30;15.77;;;17.60;99.90;;;;;;5061446;28;20056;-80
2022/06/27 06:22:31;;;;;;;16.88;14.77;;;17.50;99.90;;;;;;5062956;28;20044;-79
2022/06/27 06:24:57;;;;;;;17.25;14.88;;;17.30;99.90;;;;;;5063170;28;20036;-78
2022/06/27 06:27:23;;;;;;;16.35;14.55;;;17.60;99.90;;;;;;5072691;28;20044;-78
2022/06/27 06:29:49;;;;;;;17.45;15.75;;;17.50;99.90;;;;;;5080915;28;20465;-77
2022/06/27 06:32:15;;;;;;;17.33;15.63;;;17.60;99.90;;;;;;5058815;28;20055;-78
2022/06/27 06:34:42;;;;;;;16.58;14.95;;;17.60;99.90;;;;;;5060033;28;20086;-78
2022/06/27 06:37:09;;;;;;;18.70;16.90;;;17.70;99.90;;;;;;5065419;28;20124;-77
2022/06/27 06:39:36;;;;;;;17.25;15.48;;;17.60;99.90;;;;;;5069432;28;20101;-79
2022/06/27 06:42:02;;;;;;;15.68;14.25;;;17.70;99.90;;;;;;5067722;28;20037;-79
2022/06/27 06:44:28;;;;;;;16.17;14.48;;;17.70;99.90;;;;;;5059966;28;20037;-80
2022/06/27 06:46:55;;;;;;;15.57;14.05;;;17.60;99.90;;;;;;5063113;28;20105;-78
2022/06/27 06:49:21;;;;;;;13.32;11.93;;;17.60;99.90;;;;;;5046016;28;20048;-78
2022/06/27 06:51:48;;;;;;;13.35;11.95;;;17.80;99.90;;;;;;5031131;28;20567;-78
2022/06/27 06:54:17;;;;;;;13.00;11.70;;;17.70;99.90;;;;;;5065055;28;20053;-79
2022/06/27 06:56:46;;;;;;;14.13;12.65;;;17.60;99.90;;;;;;5044461;28;20510;-80
2022/06/27 06:59:12;;;;;;;16.42;12.32;;;17.70;99.90;;;;;;5063956;28;20051;-79
2022/06/27 07:01:39;;;;;;;12.27;11.07;;;17.80;99.90;;;;;;5066083;28;20406;-79
2022/06/27 07:04:04;;;;;;;12.57;11.27;;;17.80;99.90;;;;;;5062580;28;20135;-80
2022/06/27 07:06:31;;;;;;;11.07;10.07;;;17.50;99.90;;;;;;5045670;28;20148;-79
2022/06/27 07:08:58;;;;;;;11.00;8.35;;;17.60;99.90;;;;;;5030399;28;20036;-81
2022/06/27 07:11:27;;;;;;;9.00;8.20;;;17.60;99.90;;;;;;5060196;28;20189;-78
2022/06/27 07:13:53;;;;;;;8.50;7.23;;;17.70;99.90;;;;;;5062387;28;20135;-78
2022/06/27 07:16:21;;;;;;;8.60;7.70;;;17.70;99.90;;;;;;5062818;28;20116;-79
2022/06/27 07:18:47;;;;;;;8.45;7.55;;;17.80;99.90;;;;;;5069616;28;20044;-80
2022/06/27 07:21:18;;;;;;;8.57;7.30;;;17.90;99.90;;;;;;5050618;28;20587;-79
2022/06/27 07:23:48;;;;;;;9.52;8.13;;;17.90;99.90;;;;;;5082018;28;20127;-78
2022/06/27 07:26:16;;;;;;;10.77;9.43;;;18.10;99.90;;;;;;5048325;28;20071;-79
2022/06/27 07:28:43;;;;;;;10.70;9.60;;;18.20;99.90;;;;;;5069693;28;20044;-77
2022/06/27 07:31:11;;;;;;;10.25;9.25;;;18.10;99.90;;;;;;5066593;28;20052;-76
2022/06/27 07:33:38;;;;;;;13.15;11.13;;;18.10;99.90;;;;;;5050965;28;20713;-84
2022/06/27 07:36:08;;;;;;;12.85;11.65;;;18.10;99.90;;;;;;5072375;28;20401;-79
2022/06/27 07:38:38;;;;;;;13.48;12.13;;;18.10;99.90;;;;;;5070742;28;20526;-81
2022/06/27 07:41:07;;;;;;;19.48;12.02;;;18.00;99.90;;;;;;5039539;28;20044;-81
2022/06/27 07:43:34;;;;;;;12.17;10.97;;;18.00;99.90;;;;;;5056547;28;20036;-79
2022/06/27 07:46:01;;;;;;;12.38;11.27;;;17.90;99.90;;;;;;5048781;28;20872;-80
2022/06/27 07:48:27;;;;;;;12.68;11.38;;;17.90;99.90;;;;;;5047173;28;20044;-80
2022/06/27 07:50:54;;;;;;;12.35;11.07;;;18.00;99.90;;;;;;5031876;28;20115;-80
2022/06/27 07:53:20;;;;;;;12.48;11.25;;;18.00;99.90;;;;;;5051121;28;20044;-80
2022/06/27 07:55:55;;;;;;;14.18;12.27;;;17.80;99.90;;;;;;5048088;28;20097;-80
2022/06/27 07:58:30;;;;;;;12.07;10.98;;;17.60;99.90;;;;;;5028050;28;20044;-78
2022/06/27 08:00:57;;;;;;;12.25;10.95;;;17.80;99.90;;;;;;5031415;28;20076;-78
2022/06/27 08:03:44;;;;;;;11.80;10.60;;;18.00;99.90;;;;;;5048519;28;20075;-79
2022/06/27 08:06:16;;;;;;;14.32;10.93;;;18.00;99.90;;;;;;5051907;28;20499;-79
2022/06/27 08:08:44;;;;;;;14.20;11.98;;;18.00;99.90;;;;;;5046378;28;20041;-80
2022/06/27 08:11:19;;;;;;;11.82;10.60;;;18.10;99.90;;;;;;5049854;28;20033;-80
2022/06/27 08:13:47;;;;;;;13.48;11.18;;;17.90;99.90;;;;;;5056086;28;20080;-79
2022/06/27 08:16:14;;;;;;;14.65;13.02;;;17.90;99.90;;;;;;5050441;28;20072;-79
2022/06/27 08:18:46;;;;;;;13.32;11.20;;;18.10;99.90;;;;;;5046801;28;20037;-79
2022/06/27 08:21:13;;;;;;;14.32;10.77;;;18.10;99.90;;;;;;5047229;28;20086;-80
2022/06/27 08:23:40;;;;;;;11.30;10.27;;;18.30;99.90;;;;;;5057066;28;20049;-80
2022/06/27 08:26:07;;;;;;;12.85;10.82;;;18.10;99.90;;;;;;5045109;28;20367;-81
2022/06/27 08:28:37;;;;;;;11.90;10.70;;;18.20;99.90;;;;;;5044853;28;20491;-80
2022/06/27 08:31:08;;;;;;;11.88;10.57;;;18.30;99.90;;;;;;5042475;28;20037;-79
2022/06/27 08:33:35;;;;;;;11.77;10.48;;;18.30;99.90;;;;;;5045744;28;20042;-81
2022/06/27 08:36:02;;;;;;;11.82;10.77;;;18.30;99.90;;;;;;5042035;28;20499;-80
2022/06/27 08:38:29;;;;;;;13.43;12.02;;;18.30;99.90;;;;;;5048547;28;20036;-81
2022/06/27 08:40:55;;;;;;;11.52;10.35;;;18.30;99.90;;;;;;5058750;28;20127;-81
2022/06/27 08:43:23;;;;;;;12.90;11.55;;;18.30;99.90;;;;;;5045361;28;20049;-81
2022/06/27 08:45:51;;;;;;;12.32;10.95;;;18.30;99.90;;;;;;5056995;28;20044;-75
2022/06/27 08:48:17;;;;;;;13.30;11.57;;;18.40;99.90;;;;;;5073992;28;20040;-81
2022/06/27 08:50:45;;;;;;;15.43;11.35;;;18.40;99.90;;;;;;5048921;28;20043;-84
2022/06/27 08:53:12;;;;;;;15.25;11.57;;;18.40;99.90;;;;;;5048364;28;20048;-82
2022/06/27 08:55:42;;;;;;;12.05;10.88;;;18.50;99.90;;;;;;5048560;28;20052;-82
2022/06/27 08:58:12;;;;;;;12.30;11.20;;;18.50;99.90;;;;;;5048530;28;20041;-81
2022/06/27 09:00:40;;;;;;;11.20;10.20;;;18.50;99.90;;;;;;5067261;28;20059;-82
2022/06/27 09:03:07;;;;;;;14.80;11.18;;;18.60;99.90;;;;;;5068438;28;20815;-82
2022/06/27 09:05:34;;;;;;;11.45;10.25;;;18.60;99.90;;;;;;5074929;28;20051;-82
2022/06/27 09:08:02;;;;;;;12.20;10.90;;;18.70;99.90;;;;;;5065452;28;20076;-82
2022/06/27 09:10:36;;;;;;;10.95;9.90;;;18.80;99.90;;;;;;5064957;28;20042;-83
2022/06/27 09:13:06;;;;;;;11.30;9.13;;;19.00;99.90;;;;;;5045940;28;20055;-82
2022/06/27 09:15:53;;;;;;;11.95;9.82;;;19.20;99.90;;;;;;5034227;28;20513;-82
2022/06/27 09:18:23;;;;;;;10.40;9.40;;;19.50;99.90;;;;;;5075980;28;20345;-77
2022/06/27 09:20:58;;;;;;;10.85;9.75;;;19.90;99.90;;;;;;5064625;28;20041;-73
2022/06/27 09:23:27;;;;;;;10.50;9.43;;;19.60;99.90;;;;;;5032130;28;20084;-81
2022/06/27 09:26:09;;;;;;;12.93;10.15;;;19.60;99.90;;;;;;5067336;28;20092;-81
2022/06/27 09:28:39;;;;;;;9.40;8.18;;;19.40;99.90;;;;;;5065420;28;20040;-82
2022/06/27 09:31:10;;;;;;;12.57;9.80;;;19.30;99.90;;;;;;5045855;28;20086;-81
2022/06/27 09:33:37;;;;;;;11.77;9.13;;;19.30;99.90;;;;;;5048892;28;20052;-82
2022/06/27 09:36:14;;;;;;;12.48;9.07;;;19.40;99.90;;;;;;5075132;28;20032;-82
2022/06/27 09:38:41;;;;;;;9.95;8.57;;;19.50;99.90;;;;;;5053623;28;20386;-83
2022/06/27 09:41:10;;;;;;;9.68;8.77;;;19.60;99.90;;;;;;5062700;28;20465;-82
2022/06/27 09:43:46;;;;;;;10.13;9.18;;;19.50;99.90;;;;;;5046902;28;20044;-84
2022/06/27 09:46:13;;;;;;;10.45;8.02;;;19.50;99.90;;;;;;5045844;28;20143;-83
2022/06/27 09:48:44;;;;;;;9.38;8.35;;;19.30;99.90;;;;;;5047424;28;20059;-82
2022/06/27 09:51:17;;;;;;;8.35;7.43;;;19.50;99.90;;;;;;5062106;28;20045;-81
2022/06/27 09:53:48;;;;;;;12.32;8.00;;;19.70;99.90;;;;;;5047103;28;20556;-80
2022/06/27 09:56:15;;;;;;;9.32;8.43;;;19.80;99.90;;;;;;5064379;28;20045;-80
2022/06/27 09:58:41;;;;;;;10.00;7.65;;;19.70;99.90;;;;;;5065581;28;20082;-80
2022/06/27 10:01:08;;;;;;;10.90;7.05;;;19.90;99.90;;;;;;5044792;28;20495;-81
2022/06/27 10:03:36;;;;;;;8.98;7.07;;;19.80;99.90;;;;;;5045415;28;20036;-81
2022/06/27 10:06:03;;;;;;;11.48;8.65;;;19.80;99.90;;;;;;5063328;28;20052;-81
2022/06/27 10:08:31;;;;;;;8.57;7.78;;;19.70;99.90;;;;;;5058860;28;20403;-81
2022/06/27 10:11:09;;;;;;;9.38;7.10;;;19.50;99.90;;;;;;5044646;28;20451;-81
2022/06/27 10:13:38;;;;;;;8.85;7.88;;;19.60;99.90;;;;;;5065217;28;20473;-82
2022/06/27 10:16:14;;;;;;;8.38;7.38;;;19.70;99.90;;;;;;5045604;28;20044;-82
2022/06/27 10:19:02;;;;;;;9.90;7.40;;;19.70;99.90;;;;;;5065166;28;20042;-81
2022/06/27 10:21:36;;;;;;;9.63;7.03;;;19.70;99.90;;;;;;5045379;28;20579;-81
2022/06/27 10:24:27;;;;;;;7.60;6.82;;;19.70;99.90;;;;;;5042494;28;20056;-79
2022/06/27 10:26:54;;;;;;;10.45;7.10;;;19.80;99.90;;;;;;5044547;28;20049;-81
2022/06/27 10:29:47;;;;;;;8.48;7.00;;;19.70;99.90;;;;;;5047091;28;20624;-81
2022/06/27 10:32:46;;;;;;;9.55;7.32;;;19.70;99.90;;;;;;5046278;28;20051;-81
2022/06/27 10:35:13;;;;;;;7.13;6.50;;;19.60;99.90;;;;;;5061788;28;20033;-76
2022/06/27 10:37:41;;;;;;;8.15;6.72;;;19.60;99.90;;;;;;5060850;28;20078;-79
2022/06/27 10:40:19;;;;;;;7.13;6.00;;;19.60;99.90;;;;;;5044376;28;20479;-78
2022/06/27 10:42:47;;;;;;;7.80;7.03;;;19.70;99.90;;;;;;5047225;28;20051;-79
2022/06/27 10:45:19;;;;;;;10.30;6.55;;;19.60;99.90;;;;;;5045264;28;20039;-78
2022/06/27 10:47:49;;;;;;;8.43;7.63;;;19.50;99.90;;;;;;5043341;28;20076;-78
2022/06/27 10:50:17;;;;;;;8.85;6.97;;;19.50;99.90;;;;;;5053295;28;20048;-78
2022/06/27 10:52:43;;;;;;;14.00;6.97;;;19.10;99.90;;;;;;5023363;28;20414;-78
2022/06/27 10:55:23;;;;;;;8.85;6.78;;;19.30;99.90;;;;;;5045744;28;20040;-85
2022/06/27 10:57:50;;;;;;;9.55;5.65;;;19.50;99.90;;;;;;5029399;28;20617;-79
2022/06/27 11:00:39;;;;;;;6.97;5.90;;;19.60;99.90;;;;;;5044664;28;20044;-79
2022/06/27 11:03:06;;;;;;;5.90;5.30;;;19.60;99.90;;;;;;5066927;28;20445;-78
2022/06/27 11:06:04;;;;;;;6.85;5.82;;;19.60;99.90;;;;;;5063613;28;20039;-77
2022/06/27 11:08:33;;;;;;;6.28;5.13;;;19.60;99.90;;;;;;5007792;28;20079;-77
2022/06/27 11:10:59;;;;;;;9.50;5.40;;;19.50;99.90;;;;;;5031387;28;20041;-78
2022/06/27 11:13:44;;;;;;;6.47;5.35;;;19.80;99.90;;;;;;5049939;28;20380;-78
2022/06/27 11:16:18;;;;;;;7.20;5.03;;;19.60;99.90;;;;;;5048874;28;20041;-78
2022/06/27 11:18:43;;;;;;;6.57;5.53;;;19.90;99.90;;;;;;5031701;28;20048;-78
2022/06/27 11:21:11;;;;;;;6.80;5.07;;;19.80;99.90;;;;;;5084376;28;20044;-79
2022/06/27 11:23:57;;;;;;;5.32;4.70;;;19.60;99.90;;;;;;5052113;28;20136;-78
2022/06/27 11:26:31;;;;;;;8.10;5.97;;;19.90;99.90;;;;;;5053621;28;20056;-79
2022/06/27 11:31:59;;;;;;;5.75;4.50;;;20.00;99.90;;;;;;5074785;28;20052;-84
2022/06/27 11:34:27;;;;;;;8.68;4.05;;;19.90;99.90;;;;;;5067662;28;20433;-80
2022/06/27 11:36:53;;;;;;;9.77;5.72;;;20.00;99.90;;;;;;5033217;28;20411;-81
2022/06/27 11:39:32;;;;;;;7.20;5.72;;;20.10;99.90;;;;;;5076420;28;20040;-78
2022/06/27 11:42:02;;;;;;;7.97;5.93;;;20.10;99.90;;;;;;5068912;28;20502;-80
2022/06/27 11:44:28;;;;;;;9.67;5.50;;;20.30;99.90;;;;;;5053108;28;20459;-81
2022/06/27 11:47:08;;;;;;;5.75;4.68;;;20.40;99.90;;;;;;5059806;28;20056;-79
2022/06/27 11:49:38;;;;;;;;;;;20.40;99.90;;;;;;5068694;28;20048;-82
2022/06/27 11:52:12;;;;;;;8.05;5.38;;;20.40;99.90;;;;;;5067333;28;19982;-81
2022/06/27 11:54:44;;;;;;;6.13;5.53;;;20.60;99.90;;;;;;5067679;28;20044;-80
2022/06/27 11:57:29;;;;;;;12.10;6.75;;;20.40;99.90;;;;;;5062340;28;20105;-80
2022/06/27 11:59:56;;;;;;;6.28;5.30;;;20.60;99.90;;;;;;5046573;28;20055;-80
2022/06/27 12:02:26;;;;;;;8.65;4.53;;;20.60;99.90;;;;;;5048968;28;20575;-80
2022/06/27 12:05:02;;;;;;;;;;;20.40;99.90;;;;;;5047184;28;20052;-80
2022/06/27 12:07:28;;;;;;;5.47;4.38;;;20.40;99.90;;;;;;5074594;28;19927;-78
2022/06/27 12:09:53;;;;;;;5.43;4.20;;;20.60;99.90;;;;;;5046634;28;20426;-79
2022/06/27 12:12:26;;;;;;;6.38;4.63;;;20.60;99.90;;;;;;5066082;28;20597;-78
2022/06/27 12:14:53;;;;;;;5.90;4.25;;;20.50;99.90;;;;;;5049687;28;20155;-80
2022/06/27 12:17:20;;;;;;;7.13;3.97;;;20.50;99.90;;;;;;5066605;28;20519;-79
2022/06/27 12:19:46;;;;;;;6.60;4.63;;;20.50;99.90;;;;;;5066635;28;20032;-80
2022/06/27 12:22:18;;;;;;;4.78;4.07;;;20.70;99.90;;;;;;5046958;28;20053;-79
2022/06/27 12:24:45;;;;;;;6.03;3.92;;;20.70;99.90;;;;;;5065926;28;20044;-80
2022/06/27 12:27:11;;;;;;;4.20;3.42;;;20.80;99.90;;;;;;5047193;28;20047;-80
2022/06/27 12:29:36;;;;;;;5.90;3.78;;;20.60;99.90;;;;;;5065742;28;20037;-80
2022/06/27 12:32:03;;;;;;;3.40;3.10;;;20.80;99.90;;;;;;5085473;28;20173;-81
2022/06/27 12:34:30;;;;;;;3.45;2.97;;;20.80;99.90;;;;;;5065875;28;20047;-80
2022/06/27 12:36:56;;;;;;;4.03;3.15;;;20.90;99.90;;;;;;5065827;28;20518;-80
2022/06/27 12:39:23;;;;;;;4.93;3.22;;;20.90;99.90;;;;;;5060123;28;20044;-79
2022/06/27 12:41:49;;;;;;;4.72;2.45;;;21.00;99.90;;;;;;5047244;28;20049;-80
2022/06/27 12:44:15;;;;;;;5.00;2.40;;;20.90;99.90;;;;;;5067053;28;20047;-80
2022/06/27 12:46:42;;;;;;;3.20;2.40;;;21.00;99.90;;;;;;5046071;28;20123;-79